Time;durP1;ratioP1;P1;durP2;ratioP2;P2;SDS_P1;SDS_P2;PMS_P1;PMS_P2;Temp;Humidity;BMP_temperature;BMP_pressure;BME280_temperature;BME280_humidity;BME280_pressure;Samples;Min_cycle;Max_cycle;Signal;HPM_P1;HPM_P2
2023/10/23 00:00:57;;;;;;;4.72;0.70;;;;;;;21.39;51.88;96564.44;5092877;28;20028;-28
2023/10/23 00:03:22;;;;;;;4.22;0.80;;;;;;;21.47;51.37;96559.97;5093993;28;20110;-28
2023/10/23 00:05:48;;;;;;;4.63;0.95;;;;;;;21.64;51.00;96557.25;5094279;28;20032;-28
2023/10/23 00:08:13;;;;;;;5.18;0.90;;;;;;;21.37;51.61;96567.72;5094113;28;20470;-29
2023/10/23 00:10:39;;;;;;;3.10;1.10;;;;;;;21.35;51.65;96561.19;5094321;28;20028;-28
2023/10/23 00:13:05;;;;;;;3.92;0.80;;;;;;;21.35;51.87;96566.69;5094028;28;20024;-28
2023/10/23 00:15:32;;;;;;;4.32;0.93;;;;;;;21.46;51.88;96570.25;5093790;28;20073;-27
2023/10/23 00:17:57;;;;;;;3.05;0.80;;;;;;;21.65;51.44;96570.56;5093897;28;20136;-29
2023/10/23 00:20:23;;;;;;;2.85;0.93;;;;;;;21.30;52.21;96568.16;5101005;28;20042;-28
2023/10/23 00:22:48;;;;;;;2.67;0.63;;;;;;;21.48;51.37;96569.75;5099562;28;20020;-28
2023/10/23 00:25:14;;;;;;;2.85;0.80;;;;;;;21.47;51.47;96565.50;5095452;28;20106;-28
2023/10/23 00:27:39;;;;;;;3.97;0.80;;;;;;;21.43;51.95;96576.00;5093810;28;20024;-28
2023/10/23 00:30:05;;;;;;;4.07;1.00;;;;;;;21.56;51.40;96573.56;5093997;28;20482;-28
2023/10/23 00:32:31;;;;;;;3.47;0.98;;;;;;;21.56;51.41;96568.03;5094615;28;20028;-28
2023/10/23 00:34:56;;;;;;;4.53;1.25;;;;;;;21.60;51.30;96573.31;5093679;28;20028;-28
2023/10/23 00:37:21;;;;;;;3.88;0.85;;;;;;;21.41;51.95;96581.25;5093839;28;20031;-29
2023/10/23 00:39:47;;;;;;;3.45;0.90;;;;;;;21.48;51.62;96589.06;5093525;28;20230;-28
2023/10/23 00:42:12;;;;;;;3.25;0.90;;;;;;;21.51;51.86;96588.09;5093404;28;20023;-29
2023/10/23 00:44:38;;;;;;;6.25;1.05;;;;;;;21.35;52.33;96586.00;5093426;28;20028;-28
2023/10/23 00:47:04;;;;;;;3.42;1.00;;;;;;;21.50;51.75;96589.34;5093306;28;20027;-28
2023/10/23 00:49:30;;;;;;;2.90;0.75;;;;;;;21.40;52.00;96588.78;5101364;28;20030;-28
2023/10/23 00:51:55;;;;;;;4.30;1.10;;;;;;;21.50;51.58;96581.81;5093418;28;20012;-28
2023/10/23 00:54:22;;;;;;;4.53;0.90;;;;;;;21.54;51.14;96581.56;5093701;28;20027;-27
2023/10/23 00:56:48;;;;;;;3.78;1.05;;;;;;;21.43;51.61;96592.56;5093294;28;20028;-28
2023/10/23 00:59:14;;;;;;;6.03;1.83;;;;;;;21.57;51.39;96582.59;5093290;28;20031;-29
2023/10/23 01:01:42;;;;;;;3.33;1.15;;;;;;;21.48;51.31;96587.06;5093103;28;20024;-28
2023/10/23 01:04:08;;;;;;;6.45;1.00;;;;;;;21.48;51.56;96581.56;5095154;28;20046;-28
2023/10/23 01:06:34;;;;;;;4.82;0.93;;;;;;;21.49;51.59;96574.78;5097786;28;20464;-28
2023/10/23 01:08:59;;;;;;;5.85;1.25;;;;;;;21.48;51.64;96572.53;5097240;28;20020;-28
2023/10/23 01:11:25;;;;;;;4.50;1.10;;;;;;;21.46;51.97;96575.03;5097193;28;20023;-28
2023/10/23 01:13:50;;;;;;;4.90;1.15;;;;;;;21.44;51.51;96569.22;5097244;28;20016;-28
2023/10/23 01:16:15;;;;;;;3.90;0.82;;;;;;;21.40;51.79;96571.47;5105082;28;20022;-28
2023/10/23 01:18:42;;;;;;;3.00;0.93;;;;;;;21.37;51.23;96564.19;5097447;28;20019;-29
2023/10/23 01:21:08;;;;;;;2.95;0.90;;;;;;;21.18;51.05;96563.81;5097037;28;20020;-28
2023/10/23 01:23:36;;;;;;;2.80;0.90;;;;;;;21.31;50.31;96555.88;5097339;28;20356;-28
2023/10/23 01:26:02;;;;;;;2.20;0.90;;;;;;;21.19;50.47;96557.06;5096936;28;20481;-28
2023/10/23 01:28:27;;;;;;;2.67;0.77;;;;;;;21.38;50.29;96558.19;5097331;28;20024;-28
2023/10/23 01:30:53;;;;;;;4.22;0.85;;;;;;;21.32;50.28;96559.41;5097529;28;20077;-28
2023/10/23 01:33:18;;;;;;;2.45;0.88;;;;;;;21.34;50.06;96565.94;5097038;28;20047;-28
2023/10/23 01:35:44;;;;;;;4.85;0.93;;;;;;;21.39;50.22;96564.44;5096908;28;20050;-27
2023/10/23 01:38:12;;;;;;;2.08;0.82;;;;;;;21.30;50.37;96567.41;5096796;28;20055;-31
2023/10/23 01:40:37;;;;;;;3.63;1.00;;;;;;;21.20;50.76;96566.09;5096798;28;20467;-27
2023/10/23 01:43:04;;;;;;;2.65;1.05;;;;;;;21.14;50.95;96571.59;5096585;28;20031;-28
2023/10/23 01:45:29;;;;;;;3.28;0.90;;;;;;;21.15;51.42;96573.81;5096920;28;20019;-28
2023/10/23 01:47:55;;;;;;;5.68;1.00;;;;;;;21.16;51.21;96580.84;5096994;28;20019;-27
2023/10/23 01:50:20;;;;;;;2.47;0.70;;;;;;;21.14;51.08;96577.09;5096616;28;20019;-28
2023/10/23 01:52:46;;;;;;;3.03;1.10;;;;;;;21.16;51.17;96582.84;5096627;28;20048;-28
2023/10/23 01:55:11;;;;;;;2.72;0.90;;;;;;;21.25;50.73;96576.44;5096588;28;20054;-28
2023/10/23 01:57:37;;;;;;;4.07;0.98;;;;;;;21.20;51.13;96572.38;5096460;28;20035;-28
2023/10/23 02:00:04;;;;;;;3.03;0.82;;;;;;;21.27;51.06;96579.41;5096726;28;20472;-28
2023/10/23 02:02:31;;;;;;;3.97;0.90;;;;;;;21.03;51.82;96574.25;5096461;28;20463;-28
2023/10/23 02:04:57;;;;;;;2.88;1.13;;;;;;;21.15;51.54;96579.34;5096353;28;20020;-27
2023/10/23 02:07:23;;;;;;;2.83;0.93;;;;;;;21.36;50.65;96577.25;5096155;28;20091;-28
2023/10/23 02:09:48;;;;;;;4.60;0.77;;;;;;;21.36;50.84;96576.47;5096215;28;20028;-28
2023/10/23 02:12:14;;;;;;;3.60;1.10;;;;;;;21.10;51.68;96571.81;5103799;28;20849;-28
2023/10/23 02:14:39;;;;;;;3.05;0.65;;;;;;;21.15;51.27;96575.81;5096220;28;20073;-28
2023/10/23 02:17:04;;;;;;;4.05;0.70;;;;;;;21.17;51.39;96565.06;5096490;28;20020;-29
2023/10/23 02:19:30;;;;;;;5.88;1.30;;;;;;;21.00;51.68;96573.25;5096153;28;20352;-28
2023/10/23 02:21:56;;;;;;;4.35;1.10;;;;;;;21.15;51.43;96571.06;5095802;28;20414;-28
2023/10/23 02:24:21;;;;;;;3.10;0.88;;;;;;;20.92;52.08;96566.66;5096001;28;20098;-30
2023/10/23 02:26:48;;;;;;;4.30;0.80;;;;;;;21.12;51.66;96563.03;5095755;28;20023;-28
2023/10/23 02:29:13;;;;;;;4.80;1.08;;;;;;;21.19;51.36;96562.59;5103224;28;20024;-28
2023/10/23 02:31:39;;;;;;;5.82;1.30;;;;;;;21.07;51.80;96561.00;5096230;28;20020;-28
2023/10/23 02:34:05;;;;;;;3.13;0.95;;;;;;;21.24;51.37;96561.13;5095769;28;20035;-28
2023/10/23 02:36:31;;;;;;;2.08;0.90;;;;;;;21.05;51.63;96557.97;5095832;28;20433;-28
2023/10/23 02:38:57;;;;;;;2.75;1.00;;;;;;;21.18;51.37;96555.53;5095703;28;20107;-28
2023/10/23 02:41:22;;;;;;;5.85;1.05;;;;;;;20.84;52.26;96559.34;5103037;28;20023;-28
2023/10/23 02:43:49;;;;;;;5.53;1.30;;;;;;;21.03;51.51;96561.22;5095731;28;20375;-28
2023/10/23 02:46:15;;;;;;;4.68;1.10;;;;;;;21.01;51.48;96560.22;5095736;28;20016;-27
2023/10/23 02:48:41;;;;;;;6.88;0.90;;;;;;;21.03;51.48;96552.19;5095556;28;20463;-27
2023/10/23 02:51:06;;;;;;;6.13;1.95;;;;;;;21.14;51.14;96561.28;5095189;28;20023;-28
2023/10/23 02:53:32;;;;;;;2.65;0.90;;;;;;;21.17;51.25;96552.03;5095139;28;20483;-28
2023/10/23 02:55:57;;;;;;;3.33;0.88;;;;;;;21.06;51.26;96560.25;5102958;28;20102;-28
2023/10/23 02:58:22;;;;;;;2.15;0.90;;;;;;;20.94;51.53;96564.19;5095699;28;20165;-28
2023/10/23 03:00:48;;;;;;;1.92;0.70;;;;;;;21.20;50.86;96563.34;5094969;28;20024;-28
2023/10/23 03:03:13;;;;;;;5.32;0.93;;;;;;;20.94;52.02;96564.19;5095240;28;20020;-28
2023/10/23 03:05:39;;;;;;;4.10;0.80;;;;;;;20.93;52.24;96562.66;5095063;28;20027;-28
2023/10/23 03:08:05;;;;;;;5.82;0.80;;;;;;;20.89;52.14;96561.41;5103010;28;20102;-28
2023/10/23 03:10:31;;;;;;;4.65;1.20;;;;;;;20.96;51.83;96563.69;5095240;28;20020;-29
2023/10/23 03:12:57;;;;;;;5.75;1.15;;;;;;;20.90;51.71;96568.41;5095078;28;20522;-28
2023/10/23 03:15:23;;;;;;;3.65;0.90;;;;;;;21.15;51.10;96573.81;5095244;28;20111;-28
2023/10/23 03:17:48;;;;;;;5.82;1.27;;;;;;;21.09;51.01;96564.78;5094766;28;20111;-28
2023/10/23 03:20:14;;;;;;;3.53;1.00;;;;;;;21.19;50.88;96564.59;5094657;28;20119;-28
2023/10/23 03:22:40;;;;;;;4.50;1.05;;;;;;;21.13;50.95;96567.31;5095142;28;20031;-27
2023/10/23 03:25:06;;;;;;;3.22;0.82;;;;;;;21.07;50.93;96577.53;5094516;28;20028;-28
2023/10/23 03:27:32;;;;;;;3.13;1.00;;;;;;;21.14;50.73;96575.06;5095090;28;20027;-28
2023/10/23 03:29:57;;;;;;;2.50;0.80;;;;;;;21.12;50.87;96582.34;5094854;28;20028;-28
2023/10/23 03:32:23;;;;;;;4.00;1.10;;;;;;;21.05;50.94;96580.78;5095214;28;20097;-28
2023/10/23 03:34:49;;;;;;;3.47;1.00;;;;;;;21.00;50.77;96581.53;5094676;28;20020;-28
2023/10/23 03:37:14;;;;;;;5.28;1.35;;;;;;;20.86;51.42;96585.19;5094828;28;20464;-28
2023/10/23 03:39:40;;;;;;;4.47;1.20;;;;;;;21.13;50.52;96579.09;5094681;28;20015;-28
2023/10/23 03:42:06;;;;;;;4.10;1.30;;;;;;;20.92;51.28;96588.72;5094454;28;20464;-28
2023/10/23 03:44:31;;;;;;;4.88;1.00;;;;;;;21.03;50.70;96583.28;5094700;28;20028;-28
2023/10/23 03:46:57;;;;;;;4.78;1.17;;;;;;;21.03;50.70;96583.28;5094495;28;20016;-27
2023/10/23 03:49:22;;;;;;;3.45;1.17;;;;;;;21.03;50.70;96572.25;5094224;28;20024;-28
2023/10/23 03:51:48;;;;;;;4.18;0.95;;;;;;;21.07;50.95;96581.06;5094111;28;20027;-28
2023/10/23 03:54:13;;;;;;;3.13;1.10;;;;;;;21.16;50.60;96578.09;5094466;28;20016;-27
2023/10/23 03:56:39;;;;;;;2.08;0.80;;;;;;;20.84;51.44;96576.66;5094687;28;20110;-28
2023/10/23 03:59:04;;;;;;;3.97;1.00;;;;;;;20.88;51.56;96577.19;5094172;28;20016;-28
2023/10/23 04:01:30;;;;;;;4.63;0.90;;;;;;;20.97;51.33;96579.75;5092527;28;20138;-28
2023/10/23 04:03:56;;;;;;;3.95;1.10;;;;;;;21.16;50.49;96574.56;5094127;28;20020;-28
2023/10/23 04:06:21;;;;;;;3.05;0.90;;;;;;;21.06;50.86;96573.28;5094346;28;20023;-27
2023/10/23 04:08:46;;;;;;;5.07;0.88;;;;;;;20.82;51.30;96570.88;5093948;28;20119;-28
2023/10/23 04:11:13;;;;;;;4.03;0.93;;;;;;;20.66;51.97;96565.97;5094214;28;20127;-28
2023/10/23 04:13:38;;;;;;;3.75;1.00;;;;;;;21.10;50.93;96566.28;5094322;28;20112;-28
2023/10/23 04:16:04;;;;;;;3.53;1.15;;;;;;;20.98;50.61;96570.22;5094061;28;20027;-28
2023/10/23 04:18:30;;;;;;;5.25;1.08;;;;;;;20.92;51.01;96569.41;5093943;28;20475;-27
2023/10/23 04:21:05;;;;;;;3.88;0.95;;;;;;;21.16;50.46;96566.31;5094053;28;20031;-28
2023/10/23 04:23:31;;;;;;;4.63;0.98;;;;;;;20.95;51.40;96562.19;5093792;28;20020;-29
2023/10/23 04:25:57;;;;;;;3.45;1.00;;;;;;;20.84;51.56;96562.09;5093722;28;20024;-28
2023/10/23 04:28:23;;;;;;;3.85;1.00;;;;;;;20.96;52.01;96558.19;5093788;28;20023;-28
2023/10/23 04:30:48;;;;;;;4.88;0.68;;;;;;;20.99;51.60;96566.22;5094333;28;20027;-28
2023/10/23 04:33:21;;;;;;;3.00;0.70;;;;;;;20.93;51.93;96562.66;5100822;28;20019;-28
2023/10/23 04:35:49;;;;;;;5.82;1.02;;;;;;;20.96;52.25;96567.19;5097189;28;20351;-28
2023/10/23 04:38:14;;;;;;;5.40;0.80;;;;;;;21.13;51.62;96562.56;5095852;28;20078;-28
2023/10/23 04:40:42;;;;;;;4.72;0.88;;;;;;;21.13;51.43;96570.06;5093531;28;20040;-28
2023/10/23 04:43:07;;;;;;;4.20;1.15;;;;;;;21.05;51.76;96563.47;5093530;28;20042;-28
2023/10/23 04:45:34;;;;;;;2.35;0.85;;;;;;;20.97;52.24;96573.47;5094202;28;20168;-28
2023/10/23 04:48:00;;;;;;;5.10;1.15;;;;;;;20.87;52.77;96574.91;5093586;28;20012;-28
2023/10/23 04:50:25;;;;;;;3.58;0.90;;;;;;;21.00;52.31;96561.47;5100994;28;20017;-28
2023/10/23 04:52:51;;;;;;;3.35;0.98;;;;;;;21.04;52.24;96573.75;5093360;28;20051;-28
2023/10/23 04:55:16;;;;;;;2.88;0.90;;;;;;;21.25;51.44;96570.91;5093561;28;20024;-28
2023/10/23 04:57:42;;;;;;;4.00;1.00;;;;;;;20.88;53.22;96570.91;5093610;28;20020;-28
2023/10/23 05:00:08;;;;;;;4.18;0.80;;;;;;;21.06;52.48;96574.03;5093553;28;20426;-27
2023/10/23 05:02:33;;;;;;;3.22;0.70;;;;;;;21.08;51.98;96568.78;5093408;28;20043;-27
2023/10/23 05:04:58;;;;;;;4.97;0.85;;;;;;;21.19;51.76;96579.16;5093886;28;20024;-26
2023/10/23 05:07:24;;;;;;;5.60;0.98;;;;;;;21.01;51.91;96574.00;5093273;28;20024;-28
2023/10/23 05:09:49;;;;;;;6.38;1.23;;;;;;;21.02;51.94;96586.53;5093393;28;20024;-28
2023/10/23 05:12:15;;;;;;;3.05;0.65;;;;;;;20.99;52.37;96582.78;5093774;28;20024;-28
2023/10/23 05:14:40;;;;;;;5.65;1.20;;;;;;;20.95;52.24;96579.47;5093438;28;20114;-28
2023/10/23 05:17:06;;;;;;;5.18;0.90;;;;;;;21.07;51.86;96583.81;5093319;28;20030;-28
2023/10/23 05:19:31;;;;;;;5.70;1.65;;;;;;;20.93;52.36;96579.19;5093667;28;20072;-27
2023/10/23 05:21:56;;;;;;;4.82;1.20;;;;;;;21.10;51.54;96580.06;5092960;28;20020;-28
2023/10/23 05:24:22;;;;;;;3.85;1.00;;;;;;;20.73;52.77;96582.06;5093305;28;20016;-28
2023/10/23 05:26:47;;;;;;;5.78;1.00;;;;;;;20.88;52.67;96579.19;5093324;28;20039;-27
2023/10/23 05:29:13;;;;;;;3.25;0.80;;;;;;;20.95;52.37;96581.47;5093385;28;20028;-28
2023/10/23 05:31:38;;;;;;;4.38;0.80;;;;;;;20.99;52.49;96580.00;5093386;28;20028;-28
2023/10/23 05:34:06;;;;;;;5.07;1.23;;;;;;;21.00;52.61;96589.78;5093076;28;20020;-28
2023/10/23 05:36:32;;;;;;;3.53;1.00;;;;;;;20.87;53.39;96586.69;5093075;28;20487;-30
2023/10/23 05:38:57;;;;;;;1.83;0.65;;;;;;;21.03;52.85;96590.78;5093117;28;20031;-28
2023/10/23 05:41:23;;;;;;;6.18;1.15;;;;;;;20.98;53.21;96597.78;5093447;28;20017;-28
2023/10/23 05:43:48;;;;;;;5.53;0.90;;;;;;;21.04;52.99;96600.56;5093191;28;20035;-28
2023/10/23 05:46:15;;;;;;;3.22;0.73;;;;;;;20.99;53.06;96602.06;5093337;28;20023;-29
2023/10/23 05:48:40;;;;;;;4.78;0.90;;;;;;;20.95;52.80;96596.00;5093607;28;20020;-28
2023/10/23 05:51:06;;;;;;;3.90;0.93;;;;;;;20.86;53.18;96598.97;5096494;28;20012;-28
2023/10/23 05:53:33;;;;;;;4.35;0.90;;;;;;;21.10;52.19;96599.38;5096250;28;20051;-28
2023/10/23 05:56:05;;;;;;;2.10;1.00;;;;;;;20.90;52.78;96602.22;5096495;28;20105;-28
2023/10/23 05:58:34;;;;;;;4.72;1.13;;;;;;;20.89;53.25;96595.25;5096673;28;20077;-28
2023/10/23 06:01:07;;;;;;;3.97;1.10;;;;;;;21.03;52.67;96599.06;5096730;28;20437;-27
2023/10/23 06:03:32;;;;;;;4.05;0.80;;;;;;;21.08;52.11;96598.34;5096073;28;20016;-28
2023/10/23 06:05:58;;;;;;;4.63;0.80;;;;;;;21.10;51.73;96601.38;5096345;28;20352;-28
2023/10/23 06:08:23;;;;;;;4.65;0.93;;;;;;;20.91;52.34;96591.97;5095127;28;20020;-28
2023/10/23 06:10:48;;;;;;;4.15;1.10;;;;;;;20.99;52.26;96593.78;5095914;28;20022;-28
2023/10/23 06:13:14;;;;;;;6.55;1.60;;;;;;;21.03;51.86;96599.06;5097423;28;20020;-28
2023/10/23 06:15:39;;;;;;;3.38;1.25;;;;;;;20.94;52.37;96613.03;5096430;28;20463;-28
2023/10/23 06:18:06;;;;;;;4.78;1.00;;;;;;;20.86;52.66;96606.47;5096076;28;20028;-27
2023/10/23 06:20:32;;;;;;;3.47;0.90;;;;;;;20.96;52.52;96603.03;5095678;28;20028;-28
2023/10/23 06:23:00;;;;;;;5.60;1.25;;;;;;;20.99;52.12;96602.06;5095809;28;20028;-28
2023/10/23 06:25:26;;;;;;;2.40;0.80;;;;;;;20.94;52.28;96607.53;5103426;28;20019;-29
2023/10/23 06:27:52;;;;;;;3.20;0.82;;;;;;;20.95;52.29;96607.03;5101507;28;20026;-28
2023/10/23 06:30:18;;;;;;;5.38;0.80;;;;;;;20.87;52.91;96610.75;5098197;28;20024;-29
2023/10/23 06:32:43;;;;;;;3.67;0.80;;;;;;;20.75;52.88;96612.66;5102259;27;20455;-28
2023/10/23 06:35:08;;;;;;;6.57;1.00;;;;;;;20.82;52.93;96606.69;5095532;28;20020;-27
2023/10/23 06:37:34;;;;;;;6.32;0.90;;;;;;;20.69;52.89;96620.13;5095720;28;20016;-28
2023/10/23 06:39:59;;;;;;;3.88;0.82;;;;;;;20.88;52.35;96624.03;5095569;28;20379;-28
2023/10/23 06:42:25;;;;;;;4.28;0.80;;;;;;;21.03;51.86;96621.88;5094652;28;20416;-28
2023/10/23 06:44:51;;;;;;;3.92;1.15;;;;;;;21.11;51.72;96628.47;5095813;28;20016;-28
2023/10/23 06:47:16;;;;;;;2.85;1.13;;;;;;;21.09;51.43;96625.44;5095319;28;20023;-28
2023/10/23 06:49:45;;;;;;;5.43;1.23;;;;;;;21.12;51.72;96620.94;5095530;28;20435;-28
2023/10/23 06:52:11;;;;;;;4.57;1.00;;;;;;;21.02;51.71;96620.38;5095296;28;20020;-28
2023/10/23 06:54:36;;;;;;;4.22;1.00;;;;;;;21.24;51.04;96627.31;5095557;28;20433;-28
2023/10/23 06:57:08;;;;;;;6.22;0.90;;;;;;;21.19;50.98;96634.31;5095435;28;20044;-28
2023/10/23 06:59:34;;;;;;;2.33;0.80;;;;;;;21.05;51.63;96635.19;5095235;28;20034;-28
2023/10/23 07:02:02;;;;;;;2.35;0.73;;;;;;;21.04;51.83;96634.41;5094274;28;20532;-28
2023/10/23 07:04:28;;;;;;;2.55;0.80;;;;;;;21.08;51.66;96632.19;5095247;28;20047;-28
2023/10/23 07:06:55;;;;;;;3.63;0.80;;;;;;;21.07;51.56;96638.97;5095177;28;20437;-28
2023/10/23 07:09:20;;;;;;;4.70;0.95;;;;;;;21.07;51.56;96636.19;5095128;28;20024;-28
2023/10/23 07:11:50;;;;;;;3.00;0.90;;;;;;;21.14;51.23;96627.47;5095351;28;20020;-28
2023/10/23 07:14:15;;;;;;;5.22;0.95;;;;;;;21.30;51.09;96634.38;5102539;28;20028;-28
2023/10/23 07:16:42;;;;;;;3.05;1.00;;;;;;;21.31;51.12;96638.63;5094773;28;20031;-28
2023/10/23 07:19:08;;;;;;;1.42;0.70;;;;;;;21.31;51.00;96649.69;5095137;28;20028;-28
2023/10/23 07:21:33;;;;;;;3.63;0.85;;;;;;;21.21;51.52;96639.34;5093601;28;20023;-28
2023/10/23 07:23:59;;;;;;;6.10;1.02;;;;;;;21.17;51.65;96645.03;5095061;28;20024;-28
2023/10/23 07:26:24;;;;;;;2.35;0.82;;;;;;;21.31;50.97;96657.19;5095027;28;20026;-29
2023/10/23 07:28:50;;;;;;;2.30;1.17;;;;;;;21.38;50.90;96651.22;5094415;28;20016;-27
2023/10/23 07:31:16;;;;;;;4.50;1.08;;;;;;;21.38;50.91;96657.50;5094868;28;20027;-28
2023/10/23 07:33:42;;;;;;;4.50;1.20;;;;;;;21.51;50.79;96665.34;5094490;28;20481;-29
2023/10/23 07:36:13;;;;;;;4.60;1.00;;;;;;;21.56;50.57;96664.63;5094655;28;20111;-27
2023/10/23 07:38:43;;;;;;;4.05;1.13;;;;;;;21.50;50.65;96663.84;5095085;28;20490;-28
2023/10/23 07:41:10;;;;;;;2.90;1.00;;;;;;;21.43;51.13;96670.56;5094816;28;20024;-28
2023/10/23 07:43:35;;;;;;;1.73;0.90;;;;;;;21.45;51.18;96661.81;5101798;28;20416;-28
2023/10/23 07:46:10;;;;;;;3.17;1.08;;;;;;;21.46;51.40;96666.06;5093146;28;20084;-28
2023/10/23 07:48:36;;;;;;;3.53;0.90;;;;;;;21.53;50.90;96662.84;5094392;28;20061;-28
2023/10/23 07:51:03;;;;;;;12.15;1.30;;;;;;;21.44;51.19;96663.03;5094501;28;20406;-28
2023/10/23 07:53:29;;;;;;;3.17;0.90;;;;;;;21.37;51.23;96660.75;5094316;28;20051;-28
2023/10/23 07:55:55;;;;;;;3.85;0.90;;;;;;;21.31;51.74;96668.97;5094838;28;20073;-28
2023/10/23 07:58:22;;;;;;;2.70;0.90;;;;;;;21.47;51.30;96662.06;5094054;28;20015;-28
2023/10/23 08:00:51;;;;;;;4.22;1.05;;;;;;;21.44;51.52;96665.81;5093877;28;20094;-28
2023/10/23 08:03:17;;;;;;;3.25;0.80;;;;;;;21.46;51.35;96663.31;5094130;28;20026;-28
2023/10/23 08:05:42;;;;;;;2.30;0.82;;;;;;;21.60;51.02;96659.63;5093606;28;20020;-28
2023/10/23 08:08:08;;;;;;;1.98;0.80;;;;;;;21.41;51.90;96661.25;5094708;28;20078;-28
2023/10/23 08:10:33;;;;;;;2.60;0.80;;;;;;;21.41;51.33;96658.50;5101138;28;20016;-28
2023/10/23 08:12:59;;;;;;;2.95;1.00;;;;;;;21.37;51.97;96669.03;5094477;28;20020;-28
2023/10/23 08:15:30;;;;;;;7.80;1.00;;;;;;;21.61;51.39;96679.72;5093748;28;20035;-28
2023/10/23 08:17:55;;;;;;;1.60;0.70;;;;;;;21.52;51.43;96677.88;5094119;28;20024;-28
2023/10/23 08:20:20;;;;;;;2.95;0.88;;;;;;;21.55;51.15;96693.47;5093635;28;20027;-27
2023/10/23 08:22:46;;;;;;;2.60;0.88;;;;;;;21.51;51.54;96685.41;5099450;28;20441;-28
2023/10/23 08:25:11;;;;;;;4.35;0.88;;;;;;;21.67;51.15;96686.00;5094996;28;20085;-29
2023/10/23 08:27:37;;;;;;;4.38;0.73;;;;;;;21.37;51.55;96689.09;5093697;28;20111;-29
2023/10/23 08:30:04;;;;;;;3.35;1.00;;;;;;;21.60;51.44;96689.22;5093967;28;20039;-29
2023/10/23 08:32:30;;;;;;;2.90;0.80;;;;;;;21.55;51.29;96685.19;5093732;28;20094;-28
2023/10/23 08:34:55;;;;;;;2.60;0.80;;;;;;;21.70;50.97;96688.53;5092426;28;20111;-28
2023/10/23 08:37:21;;;;;;;3.65;0.70;;;;;;;21.69;51.13;96686.25;5101186;28;20020;-29
2023/10/23 08:39:46;;;;;;;2.70;0.88;;;;;;;21.75;50.77;96685.06;5093761;28;20027;-27
2023/10/23 08:42:12;;;;;;;5.03;0.90;;;;;;;21.75;51.07;96679.53;5093772;28;20027;-28
2023/10/23 08:44:37;;;;;;;2.97;0.80;;;;;;;21.77;50.92;96690.06;5093762;28;20376;-27
2023/10/23 08:47:03;;;;;;;3.13;0.90;;;;;;;21.74;51.00;96685.56;5093723;28;20129;-28
2023/10/23 08:49:29;;;;;;;3.03;0.90;;;;;;;21.97;50.82;96684.41;5101761;28;20030;-29
2023/10/23 08:51:58;;;;;;;2.60;0.70;;;;;;;21.88;51.10;96682.59;5093751;28;20012;-28
2023/10/23 08:54:26;;;;;;;4.25;1.00;;;;;;;21.94;50.69;96690.16;5093688;28;20048;-28
2023/10/23 08:56:59;;;;;;;2.85;0.73;;;;;;;21.80;51.30;96684.31;5093344;28;20099;-29
2023/10/23 08:59:25;;;;;;;2.05;0.70;;;;;;;22.00;50.67;96688.97;5092420;28;20019;-28
2023/10/23 09:01:50;;;;;;;3.00;1.45;;;;;;;21.95;50.75;96688.91;5093103;28;20016;-29
2023/10/23 09:04:16;;;;;;;3.58;0.90;;;;;;;21.74;51.61;96693.84;5093455;28;20415;-28
2023/10/23 09:06:43;;;;;;;4.88;0.80;;;;;;;21.81;51.34;96691.34;5093420;28;20024;-28
2023/10/23 09:09:09;;;;;;;3.78;0.90;;;;;;;21.87;51.22;96696.91;5100733;28;20024;-28
2023/10/23 09:11:39;;;;;;;1.30;0.57;;;;;;;22.02;50.46;96693.97;5093492;28;20012;-28
2023/10/23 09:14:04;;;;;;;1.70;0.60;;;;;;;21.65;51.97;96686.50;5093775;28;20024;-28
2023/10/23 09:16:30;;;;;;;3.85;1.00;;;;;;;21.86;50.93;96701.69;5093888;28;20027;-28
2023/10/23 09:18:56;;;;;;;1.88;0.77;;;;;;;21.90;51.22;96698.66;5093693;28;20024;-32
2023/10/23 09:21:22;;;;;;;3.40;0.80;;;;;;;21.94;50.82;96695.69;5093341;28;20030;-33
2023/10/23 09:24:00;;;;;;;2.58;0.90;;;;;;;21.83;51.06;96702.66;5092846;28;20027;-31
2023/10/23 09:26:26;;;;;;;2.63;0.77;;;;;;;21.75;51.71;96695.34;5097563;28;20057;-32
2023/10/23 09:28:52;;;;;;;3.17;0.88;;;;;;;21.84;51.55;96701.41;5096906;28;20572;-32
2023/10/23 09:31:19;;;;;;;2.70;1.10;;;;;;;21.81;51.56;96702.38;5097625;28;20073;-33
2023/10/23 09:33:48;;;;;;;3.63;1.25;;;;;;;21.73;51.60;96704.13;5096870;28;20024;-32
2023/10/23 09:36:14;;;;;;;2.97;1.40;;;;;;;21.67;52.07;96706.06;5097173;28;20027;-32
2023/10/23 09:38:41;;;;;;;3.65;1.58;;;;;;;21.78;51.67;96695.09;5096814;28;20031;-32
2023/10/23 09:41:11;;;;;;;3.90;1.55;;;;;;;21.81;51.67;96694.09;5095525;28;20016;-33
2023/10/23 09:43:46;;;;;;;3.50;1.35;;;;;;;21.56;52.33;96689.47;5097130;28;20111;-32
2023/10/23 09:46:12;;;;;;;3.40;1.67;;;;;;;21.69;52.10;96695.31;5097111;28;20437;-32
2023/10/23 09:48:44;;;;;;;5.43;1.90;;;;;;;21.80;51.82;96698.13;5096898;28;20107;-32
2023/10/23 09:51:18;;;;;;;3.30;1.40;;;;;;;21.78;51.94;96692.34;5096453;28;20413;-32
2023/10/23 09:54:01;;;;;;;4.63;1.73;;;;;;;21.78;52.39;96692.34;5096852;28;20457;-32
2023/10/23 09:56:32;;;;;;;4.70;1.30;;;;;;;21.90;51.62;96695.16;5096513;28;20085;-32
2023/10/23 09:59:07;;;;;;;4.53;1.50;;;;;;;22.01;51.29;96695.97;5096742;28;20479;-32
2023/10/23 10:01:40;;;;;;;4.13;1.60;;;;;;;22.18;50.87;96699.56;5096686;28;20024;-32
2023/10/23 10:04:33;;;;;;;5.78;1.30;;;;;;;22.08;51.00;96701.03;5104003;28;20016;-32
2023/10/23 10:07:14;;;;;;;3.63;1.48;;;;;;;22.16;51.04;96704.06;5076794;28;20040;-32
2023/10/23 10:09:41;;;;;;;3.47;1.27;;;;;;;22.16;51.30;96695.78;5094920;28;20166;-32
2023/10/23 10:12:08;;;;;;;3.90;1.30;;;;;;;22.10;51.68;96693.03;5096790;28;20028;-32
2023/10/23 10:14:34;;;;;;;6.65;1.95;;;;;;;22.18;51.66;96702.34;5101031;28;20023;-32
2023/10/23 10:17:01;;;;;;;3.42;1.33;;;;;;;22.27;50.93;96704.09;5097109;28;20065;-32
2023/10/23 10:19:27;;;;;;;3.17;1.08;;;;;;;22.03;51.58;96704.53;5103345;28;20024;-32
2023/10/23 10:22:08;;;;;;;3.60;1.50;;;;;;;21.98;51.37;96701.72;5095943;28;20446;-32
2023/10/23 10:24:35;;;;;;;6.45;1.30;;;;;;;22.02;51.42;96702.25;5096130;28;20032;-32
2023/10/23 10:27:06;;;;;;;4.18;1.55;;;;;;;21.99;51.76;96692.97;5095801;28;20080;-31
2023/10/23 10:29:32;;;;;;;3.90;1.85;;;;;;;21.91;51.79;96691.13;5103461;28;20028;-32
2023/10/23 10:32:05;;;;;;;4.93;1.85;;;;;;;21.96;51.30;96684.88;5103767;28;20023;-32
2023/10/23 10:34:35;;;;;;;4.00;1.98;;;;;;;22.02;51.53;96688.44;5096407;28;20408;-32
2023/10/23 10:37:04;;;;;;;6.88;2.20;;;;;;;22.18;51.10;96691.28;5095983;28;20024;-32
2023/10/23 10:40:03;;;;;;;6.05;2.60;;;;;;;22.11;51.02;96689.00;5094826;28;20480;-32
2023/10/23 10:42:29;;;;;;;4.72;2.78;;;;;;;22.21;51.05;96686.78;5092818;28;20115;-32
2023/10/23 10:44:59;;;;;;;6.78;2.55;;;;;;;22.24;50.98;96688.56;5095896;28;20020;-31
2023/10/23 10:47:41;;;;;;;4.95;2.35;;;;;;;22.37;50.49;96686.06;5095886;28;20016;-32
2023/10/23 10:50:08;;;;;;;7.78;3.17;;;;;;;22.35;50.59;96683.06;5095473;28;20360;-32
2023/10/23 10:52:38;;;;;;;5.28;2.70;;;;;;;22.10;51.26;96678.44;5095172;28;20074;-32
2023/10/23 10:55:05;;;;;;;6.70;2.65;;;;;;;22.26;51.17;96677.72;5102842;28;20024;-32
2023/10/23 10:57:31;;;;;;;5.03;2.28;;;;;;;22.24;51.19;96673.97;5095627;28;20116;-32
2023/10/23 11:00:01;;;;;;;4.10;2.08;;;;;;;22.16;51.41;96677.22;5095623;28;20070;-32
2023/10/23 11:02:26;;;;;;;4.85;1.60;;;;;;;22.16;51.10;96673.69;5094984;28;20352;-32
2023/10/23 11:04:52;;;;;;;3.63;2.08;;;;;;;22.31;51.01;96670.72;5095239;28;20024;-32
2023/10/23 11:07:27;;;;;;;6.38;1.85;;;;;;;22.28;50.61;96669.69;5095387;28;20020;-32
2023/10/23 11:09:53;;;;;;;3.63;2.20;;;;;;;22.11;51.61;96675.19;5095305;28;20510;-32
2023/10/23 11:12:20;;;;;;;4.72;1.85;;;;;;;22.15;51.06;96669.41;5095487;28;20465;-32
2023/10/23 11:14:48;;;;;;;4.53;1.55;;;;;;;22.22;51.18;96674.47;5095375;28;20020;-32
2023/10/23 11:17:14;;;;;;;3.88;1.67;;;;;;;22.28;50.64;96664.19;5094943;28;20023;-32
2023/10/23 11:19:42;;;;;;;5.70;1.55;;;;;;;22.18;50.72;96660.91;5094950;28;20031;-32
2023/10/23 11:22:18;;;;;;;3.40;1.50;;;;;;;22.25;50.90;96665.19;5094688;28;20031;-32
2023/10/23 11:24:43;;;;;;;5.45;1.70;;;;;;;22.11;50.78;96666.91;5094849;28;20367;-32
2023/10/23 11:27:09;;;;;;;4.72;1.60;;;;;;;22.22;51.16;96655.13;5095179;28;20027;-32
2023/10/23 11:29:46;;;;;;;5.82;1.40;;;;;;;22.27;50.98;96659.16;5097724;28;20019;-33
2023/10/23 11:32:13;;;;;;;3.25;1.10;;;;;;;22.19;51.32;96656.13;5097226;28;20351;-32